Mijn Webcam Meer informatie Mijn Webcam


webcam facing north-east Meer informatie webcam facing north-east


Regen radar Meer informatie rain snow radar


Bezoek onze andere website:

Template documentation
and downloads

And another site


CBI



METAR rapporten vliegvelden

   
EHGG - Groningen/Eelde
Gewijzigd: 18-11-2017 03:25
Gedeeltelijk bewolkt  
Gedeeltelijk bewolkt  
   Wind: ZW 4,6 m/s
Wind: ZW 4,6 m/s
Temperatuur: 6°C
Voelt als: 3°C
Dauwpunt: 4°C
Vochtigheid: 87%
Barometer: 1019 hPa
Bewolking: Gedeeltelijk bewolkt
Zicht: More then 10 km
Bewolking: Gedeeltelijk bewolkt
EHGG 180225Z AUTO 23009KT 9999 NSC 06/04 Q1019
EHMA - Schiermonnikoog
Gewijzigd: 18-11-2017 03:25
Grotendeels bewolkt  
Grotendeels bewolkt  
   Wind: WZW 10,3 m/s
Wind: WZW 10,3 m/s
Temperatuur: 9°C
Voelt als: 5°C
Dauwpunt: 4°C
Vochtigheid: 71%
Barometer: 1018 hPa
Bewolking: Grotendeels bewolkt
Zicht: More then 10 km
Bewolking: Licht bewolkt 853,4 m,
Gedeeltelijk bewolkt 1341,1 m,
Grotendeels bewolkt 1493,5 m
EHMA 180225Z AUTO 25020KT 9999 FEW028 SCT044 BKN049 09/04 Q1018
EHMG - Terschelling
Gewijzigd: 18-11-2017 03:25
Gedeeltelijk bewolkt  
Gedeeltelijk bewolkt  
   Wind: Westen 12,9 m/s
Wind: Westen 12,9 m/s
Temperatuur: 10°C
Voelt als: 6°C
Dauwpunt: 3°C
Vochtigheid: 62%
Barometer: 1017 hPa
Bewolking: Gedeeltelijk bewolkt
Zicht: More then 10 km
Bewolking: Licht bewolkt 670,6 m,
Gedeeltelijk bewolkt 853,4 m
EHMG 180225Z AUTO 26025KT 9999 FEW022 SCT028 10/03 Q1017
EHVL - Vlieland
Gewijzigd: 18-11-2017 03:31
Grotendeels bewolkt  
Grotendeels bewolkt  
   Wind: Westen 12,9 m/s
Wind: Westen 12,9 m/s
Temperatuur: 9°C
Voelt als: 4°C
Dauwpunt: 4°C
Vochtigheid: 71%
Barometer: 1019 hPa
Bewolking: Grotendeels bewolkt
Zicht: More then 10 km
Bewolking: Licht bewolkt 701 m,
Gedeeltelijk bewolkt 853,4 m,
Grotendeels bewolkt 1371,6 m
EHVL 180231Z AUTO 27025KT 9999 FEW023 SCT028 BKN045 09/04 Q1019 BLU
ETWM - Meppen, Germany
Gewijzigd: 18-11-2017 03:20
  
  
   Wind: WZW 4,1 m/s
Wind: WZW 4,1 m/s
Temperatuur: 6°C
Voelt als: 3°C
Dauwpunt: 2°C
Vochtigheid: 76%
Barometer: 1020 hPa
Zicht: More then 10 km
ETWM 180220Z AUTO 24008KT 9999 // ////// 06/02 Q1020 ///
 

Script ontwikkeld door  Saratoga-weather.org Aangepast voor de template door  Weerstation Leuven

U vindt ons ook hier:

Het Weer Aktueel

UK Metoffice

European Weather Network

WeatherCloud

Weather Underground

Benelux Weer Netwerk

AWEKAS

WeatherlinkIP

HAMweather, WeatherForYou, PWS Weather

Apparatuur in gebruik:

Weerstation
Davis VP2 Plus

Weerprogramma
Cumulus

Weercomputer
ASUS Eee Box B202

Webleverancier
Antagonist

Davis VP2 Plus

Cumulus

ASUS Eee Box B202

Antagonist